sensor_id;sensor_type;location;lat;lon;timestamp;P1;durP1;ratioP1;P2;durP2;ratioP2
59127;SDS011;44912;52.754;5.994;2022-08-26T00:00:39;35.60;;;29.27;;
59127;SDS011;44912;52.754;5.994;2022-08-26T00:03:05;39.10;;;29.27;;
59127;SDS011;44912;52.754;5.994;2022-08-26T00:05:31;33.63;;;29.13;;
59127;SDS011;44912;52.754;5.994;2022-08-26T00:07:57;33.70;;;28.75;;
59127;SDS011;44912;52.754;5.994;2022-08-26T00:10:22;34.13;;;26.90;;
59127;SDS011;44912;52.754;5.994;2022-08-26T00:12:49;32.17;;;25.17;;
59127;SDS011;44912;52.754;5.994;2022-08-26T00:15:17;35.35;;;24.17;;
59127;SDS011;44912;52.754;5.994;2022-08-26T00:17:44;30.35;;;22.55;;
59127;SDS011;44912;52.754;5.994;2022-08-26T00:20:11;28.27;;;23.13;;
59127;SDS011;44912;52.754;5.994;2022-08-26T00:22:38;24.75;;;21.38;;
59127;SDS011;44912;52.754;5.994;2022-08-26T00:25:05;28.48;;;21.27;;
59127;SDS011;44912;52.754;5.994;2022-08-26T00:27:32;30.45;;;20.65;;
59127;SDS011;44912;52.754;5.994;2022-08-26T00:30:02;27.70;;;20.70;;
59127;SDS011;44912;52.754;5.994;2022-08-26T00:32:29;28.90;;;20.83;;
59127;SDS011;44912;52.754;5.994;2022-08-26T00:34:55;29.50;;;20.23;;
59127;SDS011;44912;52.754;5.994;2022-08-26T00:37:20;29.85;;;20.38;;
59127;SDS011;44912;52.754;5.994;2022-08-26T00:39:46;25.17;;;18.52;;
59127;SDS011;44912;52.754;5.994;2022-08-26T00:42:12;24.65;;;18.20;;
59127;SDS011;44912;52.754;5.994;2022-08-26T00:44:37;26.17;;;18.75;;
59127;SDS011;44912;52.754;5.994;2022-08-26T00:47:04;29.00;;;17.15;;
59127;SDS011;44912;52.754;5.994;2022-08-26T00:49:35;28.48;;;17.83;;
59127;SDS011;44912;52.754;5.994;2022-08-26T00:52:04;26.13;;;16.85;;
59127;SDS011;44912;52.754;5.994;2022-08-26T00:54:36;22.85;;;16.40;;
59127;SDS011;44912;52.754;5.994;2022-08-26T00:57:09;22.25;;;15.90;;
59127;SDS011;44912;52.754;5.994;2022-08-26T00:59:37;23.48;;;17.02;;
59127;SDS011;44912;52.754;5.994;2022-08-26T01:02:04;20.75;;;16.02;;
59127;SDS011;44912;52.754;5.994;2022-08-26T01:04:30;20.15;;;15.73;;
59127;SDS011;44912;52.754;5.994;2022-08-26T01:06:58;20.80;;;15.05;;
59127;SDS011;44912;52.754;5.994;2022-08-26T01:09:24;22.15;;;15.90;;
59127;SDS011;44912;52.754;5.994;2022-08-26T01:11:52;21.77;;;15.43;;
59127;SDS011;44912;52.754;5.994;2022-08-26T01:14:22;21.85;;;14.85;;
59127;SDS011;44912;52.754;5.994;2022-08-26T01:16:50;21.02;;;14.02;;
59127;SDS011;44912;52.754;5.994;2022-08-26T01:19:21;20.50;;;13.15;;
59127;SDS011;44912;52.754;5.994;2022-08-26T01:21:57;19.35;;;12.65;;
59127;SDS011;44912;52.754;5.994;2022-08-26T01:24:26;21.92;;;12.35;;
59127;SDS011;44912;52.754;5.994;2022-08-26T01:26:58;20.10;;;12.52;;
59127;SDS011;44912;52.754;5.994;2022-08-26T01:29:27;19.55;;;10.70;;
59127;SDS011;44912;52.754;5.994;2022-08-26T01:31:55;18.92;;;11.40;;
59127;SDS011;44912;52.754;5.994;2022-08-26T01:34:24;18.50;;;9.73;;
59127;SDS011;44912;52.754;5.994;2022-08-26T01:37:01;15.27;;;9.10;;
59127;SDS011;44912;52.754;5.994;2022-08-26T01:39:32;16.70;;;8.82;;
59127;SDS011;44912;52.754;5.994;2022-08-26T01:41:59;14.73;;;8.48;;
59127;SDS011;44912;52.754;5.994;2022-08-26T01:44:27;15.90;;;8.25;;
59127;SDS011;44912;52.754;5.994;2022-08-26T01:46:57;14.55;;;6.35;;
59127;SDS011;44912;52.754;5.994;2022-08-26T01:49:25;14.80;;;7.07;;
59127;SDS011;44912;52.754;5.994;2022-08-26T01:51:51;14.32;;;6.57;;
59127;SDS011;44912;52.754;5.994;2022-08-26T01:54:21;12.93;;;6.30;;
59127;SDS011;44912;52.754;5.994;2022-08-26T01:56:48;13.98;;;5.70;;
59127;SDS011;44912;52.754;5.994;2022-08-26T01:59:15;13.45;;;5.20;;
59127;SDS011;44912;52.754;5.994;2022-08-26T02:01:42;11.00;;;5.07;;
59127;SDS011;44912;52.754;5.994;2022-08-26T02:04:14;14.48;;;5.88;;
59127;SDS011;44912;52.754;5.994;2022-08-26T02:06:49;13.70;;;5.85;;
59127;SDS011;44912;52.754;5.994;2022-08-26T02:09:16;11.27;;;5.07;;
59127;SDS011;44912;52.754;5.994;2022-08-26T02:11:43;11.73;;;4.53;;
59127;SDS011;44912;52.754;5.994;2022-08-26T02:14:16;11.18;;;4.05;;
59127;SDS011;44912;52.754;5.994;2022-08-26T02:16:52;11.32;;;3.97;;
59127;SDS011;44912;52.754;5.994;2022-08-26T02:19:19;9.48;;;3.20;;
59127;SDS011;44912;52.754;5.994;2022-08-26T02:21:47;10.38;;;3.20;;
59127;SDS011;44912;52.754;5.994;2022-08-26T02:24:24;12.13;;;3.88;;
59127;SDS011;44912;52.754;5.994;2022-08-26T02:26:52;10.82;;;3.13;;
59127;SDS011;44912;52.754;5.994;2022-08-26T02:31:53;11.23;;;3.22;;
59127;SDS011;44912;52.754;5.994;2022-08-26T02:34:26;12.15;;;3.30;;
59127;SDS011;44912;52.754;5.994;2022-08-26T02:37:00;8.93;;;3.08;;
59127;SDS011;44912;52.754;5.994;2022-08-26T02:39:30;9.50;;;3.13;;
59127;SDS011;44912;52.754;5.994;2022-08-26T02:41:56;12.73;;;3.20;;
59127;SDS011;44912;52.754;5.994;2022-08-26T02:44:23;10.50;;;2.70;;
59127;SDS011;44912;52.754;5.994;2022-08-26T02:46:49;11.02;;;3.30;;
59127;SDS011;44912;52.754;5.994;2022-08-26T02:49:17;9.95;;;2.67;;
59127;SDS011;44912;52.754;5.994;2022-08-26T02:51:43;9.75;;;2.25;;
59127;SDS011;44912;52.754;5.994;2022-08-26T02:54:10;10.65;;;2.55;;
59127;SDS011;44912;52.754;5.994;2022-08-26T02:56:37;10.25;;;2.47;;
59127;SDS011;44912;52.754;5.994;2022-08-26T02:59:03;10.07;;;2.30;;
59127;SDS011;44912;52.754;5.994;2022-08-26T03:01:30;9.15;;;2.00;;
59127;SDS011;44912;52.754;5.994;2022-08-26T03:03:58;7.50;;;1.80;;
59127;SDS011;44912;52.754;5.994;2022-08-26T03:06:25;8.05;;;1.73;;
59127;SDS011;44912;52.754;5.994;2022-08-26T03:08:51;9.00;;;2.17;;
59127;SDS011;44912;52.754;5.994;2022-08-26T03:11:18;9.85;;;1.70;;
59127;SDS011;44912;52.754;5.994;2022-08-26T03:13:44;10.10;;;1.80;;
59127;SDS011;44912;52.754;5.994;2022-08-26T03:16:10;9.63;;;1.83;;
59127;SDS011;44912;52.754;5.994;2022-08-26T03:18:37;9.73;;;1.60;;
59127;SDS011;44912;52.754;5.994;2022-08-26T03:21:04;7.35;;;1.55;;
59127;SDS011;44912;52.754;5.994;2022-08-26T03:23:31;10.32;;;2.00;;
59127;SDS011;44912;52.754;5.994;2022-08-26T03:25:57;7.18;;;1.77;;
59127;SDS011;44912;52.754;5.994;2022-08-26T03:28:22;9.32;;;1.95;;
59127;SDS011;44912;52.754;5.994;2022-08-26T03:30:48;5.40;;;1.45;;
59127;SDS011;44912;52.754;5.994;2022-08-26T03:33:13;10.20;;;2.35;;
59127;SDS011;44912;52.754;5.994;2022-08-26T03:35:40;11.27;;;1.77;;
59127;SDS011;44912;52.754;5.994;2022-08-26T03:38:07;7.43;;;1.38;;
59127;SDS011;44912;52.754;5.994;2022-08-26T03:40:34;8.55;;;1.55;;
59127;SDS011;44912;52.754;5.994;2022-08-26T03:43:00;5.55;;;1.45;;
59127;SDS011;44912;52.754;5.994;2022-08-26T03:45:30;7.82;;;1.90;;
59127;SDS011;44912;52.754;5.994;2022-08-26T03:47:56;8.07;;;1.60;;
59127;SDS011;44912;52.754;5.994;2022-08-26T03:50:22;10.40;;;1.60;;
59127;SDS011;44912;52.754;5.994;2022-08-26T03:52:49;8.38;;;1.50;;
59127;SDS011;44912;52.754;5.994;2022-08-26T03:55:16;7.13;;;1.65;;
59127;SDS011;44912;52.754;5.994;2022-08-26T03:57:43;9.20;;;1.58;;
59127;SDS011;44912;52.754;5.994;2022-08-26T04:00:10;11.90;;;2.00;;
59127;SDS011;44912;52.754;5.994;2022-08-26T04:02:40;11.50;;;2.00;;
59127;SDS011;44912;52.754;5.994;2022-08-26T04:05:09;9.13;;;1.55;;
59127;SDS011;44912;52.754;5.994;2022-08-26T04:07:39;13.50;;;2.40;;
59127;SDS011;44912;52.754;5.994;2022-08-26T04:10:06;9.52;;;1.50;;
59127;SDS011;44912;52.754;5.994;2022-08-26T04:12:35;12.88;;;1.65;;
59127;SDS011;44912;52.754;5.994;2022-08-26T04:15:03;9.57;;;1.60;;
59127;SDS011;44912;52.754;5.994;2022-08-26T04:17:34;10.68;;;1.75;;
59127;SDS011;44912;52.754;5.994;2022-08-26T04:20:00;8.55;;;1.60;;
59127;SDS011;44912;52.754;5.994;2022-08-26T04:22:26;9.50;;;1.77;;
59127;SDS011;44912;52.754;5.994;2022-08-26T04:24:52;8.57;;;1.88;;
59127;SDS011;44912;52.754;5.994;2022-08-26T04:27:17;13.25;;;1.98;;
59127;SDS011;44912;52.754;5.994;2022-08-26T04:29:43;11.02;;;1.75;;
59127;SDS011;44912;52.754;5.994;2022-08-26T04:32:10;11.32;;;1.85;;
59127;SDS011;44912;52.754;5.994;2022-08-26T04:34:36;12.68;;;2.00;;
59127;SDS011;44912;52.754;5.994;2022-08-26T04:37:02;10.50;;;1.70;;
59127;SDS011;44912;52.754;5.994;2022-08-26T04:39:29;10.50;;;1.88;;
59127;SDS011;44912;52.754;5.994;2022-08-26T04:41:55;11.23;;;1.83;;
59127;SDS011;44912;52.754;5.994;2022-08-26T04:44:21;11.65;;;1.83;;
59127;SDS011;44912;52.754;5.994;2022-08-26T04:46:49;9.60;;;1.60;;
59127;SDS011;44912;52.754;5.994;2022-08-26T04:49:15;10.80;;;2.10;;
59127;SDS011;44912;52.754;5.994;2022-08-26T04:51:41;13.60;;;2.38;;
59127;SDS011;44912;52.754;5.994;2022-08-26T04:54:07;15.35;;;2.08;;
59127;SDS011;44912;52.754;5.994;2022-08-26T04:56:34;10.55;;;1.85;;
59127;SDS011;44912;52.754;5.994;2022-08-26T04:59:03;13.95;;;1.88;;
59127;SDS011;44912;52.754;5.994;2022-08-26T05:01:30;8.43;;;1.67;;
59127;SDS011;44912;52.754;5.994;2022-08-26T05:03:56;12.23;;;2.08;;
59127;SDS011;44912;52.754;5.994;2022-08-26T05:06:22;11.00;;;2.10;;
59127;SDS011;44912;52.754;5.994;2022-08-26T05:08:48;10.73;;;1.80;;
59127;SDS011;44912;52.754;5.994;2022-08-26T05:11:13;11.10;;;2.05;;
59127;SDS011;44912;52.754;5.994;2022-08-26T05:13:39;10.63;;;2.10;;
59127;SDS011;44912;52.754;5.994;2022-08-26T05:16:06;11.23;;;1.92;;
59127;SDS011;44912;52.754;5.994;2022-08-26T05:18:33;13.77;;;2.13;;
59127;SDS011;44912;52.754;5.994;2022-08-26T05:20:59;11.43;;;1.70;;
59127;SDS011;44912;52.754;5.994;2022-08-26T05:23:27;11.93;;;1.67;;
59127;SDS011;44912;52.754;5.994;2022-08-26T05:25:56;12.90;;;1.95;;
59127;SDS011;44912;52.754;5.994;2022-08-26T05:28:23;11.35;;;1.88;;
59127;SDS011;44912;52.754;5.994;2022-08-26T05:30:48;12.98;;;2.35;;
59127;SDS011;44912;52.754;5.994;2022-08-26T05:33:15;10.85;;;2.15;;
59127;SDS011;44912;52.754;5.994;2022-08-26T05:35:42;11.30;;;1.90;;
59127;SDS011;44912;52.754;5.994;2022-08-26T05:38:10;11.10;;;1.90;;
59127;SDS011;44912;52.754;5.994;2022-08-26T05:40:38;13.73;;;2.10;;
59127;SDS011;44912;52.754;5.994;2022-08-26T05:43:07;11.88;;;1.80;;
59127;SDS011;44912;52.754;5.994;2022-08-26T05:45:38;10.35;;;2.10;;
59127;SDS011;44912;52.754;5.994;2022-08-26T05:48:05;11.95;;;2.10;;
59127;SDS011;44912;52.754;5.994;2022-08-26T05:50:39;13.27;;;1.95;;
59127;SDS011;44912;52.754;5.994;2022-08-26T05:53:07;9.68;;;1.73;;
59127;SDS011;44912;52.754;5.994;2022-08-26T05:55:34;9.98;;;2.35;;
59127;SDS011;44912;52.754;5.994;2022-08-26T05:58:05;13.90;;;2.40;;
59127;SDS011;44912;52.754;5.994;2022-08-26T06:00:31;8.70;;;1.40;;
59127;SDS011;44912;52.754;5.994;2022-08-26T06:02:57;10.30;;;1.88;;
59127;SDS011;44912;52.754;5.994;2022-08-26T06:05:22;9.95;;;2.03;;
59127;SDS011;44912;52.754;5.994;2022-08-26T06:07:48;9.77;;;1.65;;
59127;SDS011;44912;52.754;5.994;2022-08-26T06:10:32;10.38;;;2.03;;
59127;SDS011;44912;52.754;5.994;2022-08-26T06:12:58;9.38;;;1.60;;
59127;SDS011;44912;52.754;5.994;2022-08-26T06:15:24;11.05;;;1.92;;
59127;SDS011;44912;52.754;5.994;2022-08-26T06:17:50;11.13;;;2.00;;
59127;SDS011;44912;52.754;5.994;2022-08-26T06:20:15;8.57;;;1.52;;
59127;SDS011;44912;52.754;5.994;2022-08-26T06:22:41;10.25;;;1.90;;
59127;SDS011;44912;52.754;5.994;2022-08-26T06:25:25;10.80;;;1.85;;
59127;SDS011;44912;52.754;5.994;2022-08-26T06:28:04;8.88;;;1.70;;
59127;SDS011;44912;52.754;5.994;2022-08-26T06:30:37;11.65;;;1.75;;
59127;SDS011;44912;52.754;5.994;2022-08-26T06:33:04;10.27;;;1.55;;
59127;SDS011;44912;52.754;5.994;2022-08-26T06:35:34;12.27;;;1.90;;
59127;SDS011;44912;52.754;5.994;2022-08-26T06:38:03;8.32;;;1.75;;
59127;SDS011;44912;52.754;5.994;2022-08-26T06:40:30;10.15;;;2.28;;
59127;SDS011;44912;52.754;5.994;2022-08-26T06:42:56;11.13;;;2.20;;
59127;SDS011;44912;52.754;5.994;2022-08-26T06:45:21;9.75;;;1.95;;
59127;SDS011;44912;52.754;5.994;2022-08-26T06:47:47;10.50;;;1.75;;
59127;SDS011;44912;52.754;5.994;2022-08-26T06:50:12;7.68;;;1.50;;
59127;SDS011;44912;52.754;5.994;2022-08-26T06:52:40;8.00;;;1.20;;
59127;SDS011;44912;52.754;5.994;2022-08-26T06:55:06;11.07;;;1.60;;
59127;SDS011;44912;52.754;5.994;2022-08-26T06:57:32;10.25;;;1.73;;
59127;SDS011;44912;52.754;5.994;2022-08-26T07:00:00;9.25;;;1.38;;
59127;SDS011;44912;52.754;5.994;2022-08-26T07:02:29;11.82;;;2.10;;
59127;SDS011;44912;52.754;5.994;2022-08-26T07:04:55;12.13;;;1.60;;
59127;SDS011;44912;52.754;5.994;2022-08-26T07:07:20;11.00;;;1.80;;
59127;SDS011;44912;52.754;5.994;2022-08-26T07:09:46;7.13;;;1.33;;
59127;SDS011;44912;52.754;5.994;2022-08-26T07:12:11;10.45;;;2.33;;
59127;SDS011;44912;52.754;5.994;2022-08-26T07:14:37;9.98;;;1.55;;
59127;SDS011;44912;52.754;5.994;2022-08-26T07:17:02;11.15;;;2.13;;
59127;SDS011;44912;52.754;5.994;2022-08-26T07:19:30;10.32;;;2.10;;
59127;SDS011;44912;52.754;5.994;2022-08-26T07:21:56;10.50;;;1.63;;
59127;SDS011;44912;52.754;5.994;2022-08-26T07:24:22;8.88;;;1.20;;
59127;SDS011;44912;52.754;5.994;2022-08-26T07:26:48;11.00;;;1.63;;
59127;SDS011;44912;52.754;5.994;2022-08-26T07:29:13;13.57;;;1.50;;
59127;SDS011;44912;52.754;5.994;2022-08-26T07:31:40;7.03;;;1.30;;
59127;SDS011;44912;52.754;5.994;2022-08-26T07:34:06;8.93;;;1.60;;
59127;SDS011;44912;52.754;5.994;2022-08-26T07:36:33;10.35;;;1.45;;
59127;SDS011;44912;52.754;5.994;2022-08-26T07:38:58;10.00;;;2.00;;
59127;SDS011;44912;52.754;5.994;2022-08-26T07:41:24;7.95;;;1.30;;
59127;SDS011;44912;52.754;5.994;2022-08-26T07:43:50;9.60;;;1.35;;
59127;SDS011;44912;52.754;5.994;2022-08-26T07:46:17;8.15;;;1.70;;
59127;SDS011;44912;52.754;5.994;2022-08-26T07:48:47;8.70;;;1.80;;
59127;SDS011;44912;52.754;5.994;2022-08-26T07:51:15;7.32;;;1.30;;
59127;SDS011;44912;52.754;5.994;2022-08-26T07:53:42;9.15;;;1.52;;
59127;SDS011;44912;52.754;5.994;2022-08-26T07:56:08;9.60;;;1.60;;
59127;SDS011;44912;52.754;5.994;2022-08-26T07:58:34;7.35;;;1.42;;
59127;SDS011;44912;52.754;5.994;2022-08-26T08:01:00;11.88;;;1.92;;
59127;SDS011;44912;52.754;5.994;2022-08-26T08:03:25;7.60;;;1.55;;
59127;SDS011;44912;52.754;5.994;2022-08-26T08:05:51;10.98;;;1.80;;
59127;SDS011;44912;52.754;5.994;2022-08-26T08:08:16;8.45;;;1.40;;
59127;SDS011;44912;52.754;5.994;2022-08-26T08:10:43;7.00;;;1.40;;
59127;SDS011;44912;52.754;5.994;2022-08-26T08:13:09;9.60;;;1.55;;
59127;SDS011;44912;52.754;5.994;2022-08-26T08:15:35;10.00;;;1.73;;
59127;SDS011;44912;52.754;5.994;2022-08-26T08:18:02;9.57;;;1.55;;
59127;SDS011;44912;52.754;5.994;2022-08-26T08:20:28;7.85;;;1.40;;
59127;SDS011;44912;52.754;5.994;2022-08-26T08:22:54;9.70;;;1.70;;
59127;SDS011;44912;52.754;5.994;2022-08-26T08:25:21;10.88;;;1.55;;
59127;SDS011;44912;52.754;5.994;2022-08-26T08:27:47;9.65;;;1.52;;
59127;SDS011;44912;52.754;5.994;2022-08-26T08:30:13;9.63;;;1.50;;
59127;SDS011;44912;52.754;5.994;2022-08-26T08:32:41;8.43;;;1.75;;
59127;SDS011;44912;52.754;5.994;2022-08-26T08:35:11;7.80;;;1.20;;
59127;SDS011;44912;52.754;5.994;2022-08-26T08:37:38;9.38;;;1.60;;
59127;SDS011;44912;52.754;5.994;2022-08-26T08:40:05;11.00;;;2.00;;
59127;SDS011;44912;52.754;5.994;2022-08-26T08:42:36;8.13;;;1.60;;
59127;SDS011;44912;52.754;5.994;2022-08-26T08:47:53;10.27;;;2.20;;
59127;SDS011;44912;52.754;5.994;2022-08-26T08:50:28;10.48;;;1.90;;
59127;SDS011;44912;52.754;5.994;2022-08-26T08:53:14;12.20;;;1.42;;
59127;SDS011;44912;52.754;5.994;2022-08-26T08:56:00;10.85;;;1.63;;
59127;SDS011;44912;52.754;5.994;2022-08-26T08:58:34;7.32;;;1.27;;
59127;SDS011;44912;52.754;5.994;2022-08-26T09:01:36;9.98;;;1.80;;
59127;SDS011;44912;52.754;5.994;2022-08-26T09:06:41;8.93;;;1.45;;
59127;SDS011;44912;52.754;5.994;2022-08-26T09:09:07;7.50;;;1.40;;
59127;SDS011;44912;52.754;5.994;2022-08-26T09:11:38;10.60;;;1.50;;
59127;SDS011;44912;52.754;5.994;2022-08-26T09:14:03;8.40;;;1.35;;
59127;SDS011;44912;52.754;5.994;2022-08-26T09:16:46;7.35;;;1.10;;
59127;SDS011;44912;52.754;5.994;2022-08-26T09:19:28;6.80;;;1.00;;
59127;SDS011;44912;52.754;5.994;2022-08-26T09:22:02;6.65;;;1.05;;
59127;SDS011;44912;52.754;5.994;2022-08-26T09:24:28;9.32;;;1.88;;
59127;SDS011;44912;52.754;5.994;2022-08-26T09:26:56;8.05;;;1.30;;
59127;SDS011;44912;52.754;5.994;2022-08-26T09:29:24;10.25;;;1.23;;
59127;SDS011;44912;52.754;5.994;2022-08-26T09:40:10;6.00;;;1.15;;
59127;SDS011;44912;52.754;5.994;2022-08-26T09:43:02;6.53;;;1.15;;
59127;SDS011;44912;52.754;5.994;2022-08-26T09:45:40;6.95;;;1.08;;
59127;SDS011;44912;52.754;5.994;2022-08-26T09:48:22;5.57;;;1.25;;
59127;SDS011;44912;52.754;5.994;2022-08-26T09:51:06;8.23;;;1.40;;
59127;SDS011;44912;52.754;5.994;2022-08-26T09:56:25;7.13;;;1.25;;
59127;SDS011;44912;52.754;5.994;2022-08-26T09:58:56;6.00;;;1.00;;
59127;SDS011;44912;52.754;5.994;2022-08-26T10:01:42;6.78;;;1.10;;
59127;SDS011;44912;52.754;5.994;2022-08-26T10:06:42;4.97;;;1.00;;
59127;SDS011;44912;52.754;5.994;2022-08-26T10:09:20;4.38;;;0.85;;
59127;SDS011;44912;52.754;5.994;2022-08-26T10:11:51;7.63;;;0.90;;
59127;SDS011;44912;52.754;5.994;2022-08-26T10:19:21;12.82;;;1.60;;
59127;SDS011;44912;52.754;5.994;2022-08-26T10:21:59;9.02;;;1.30;;
59127;SDS011;44912;52.754;5.994;2022-08-26T10:24:30;5.25;;;1.10;;
59127;SDS011;44912;52.754;5.994;2022-08-26T10:29:46;4.88;;;0.98;;
59127;SDS011;44912;52.754;5.994;2022-08-26T10:32:21;6.82;;;1.40;;
59127;SDS011;44912;52.754;5.994;2022-08-26T10:34:55;8.38;;;1.30;;
59127;SDS011;44912;52.754;5.994;2022-08-26T10:37:21;6.80;;;1.00;;
59127;SDS011;44912;52.754;5.994;2022-08-26T10:39:59;7.25;;;1.10;;
59127;SDS011;44912;52.754;5.994;2022-08-26T10:42:30;4.75;;;0.80;;
59127;SDS011;44912;52.754;5.994;2022-08-26T10:45:21;8.23;;;1.15;;
59127;SDS011;44912;52.754;5.994;2022-08-26T10:53:29;8.63;;;1.23;;
59127;SDS011;44912;52.754;5.994;2022-08-26T11:02:15;9.27;;;1.30;;
59127;SDS011;44912;52.754;5.994;2022-08-26T11:04:46;6.55;;;1.30;;
59127;SDS011;44912;52.754;5.994;2022-08-26T11:07:42;8.38;;;1.27;;
59127;SDS011;44912;52.754;5.994;2022-08-26T11:12:45;8.38;;;1.20;;
59127;SDS011;44912;52.754;5.994;2022-08-26T11:15:56;7.45;;;1.00;;
59127;SDS011;44912;52.754;5.994;2022-08-26T11:18:05;6.68;;;0.88;;
59127;SDS011;44912;52.754;5.994;2022-08-26T11:20:42;7.82;;;1.10;;
59127;SDS011;44912;52.754;5.994;2022-08-26T11:28:48;8.00;;;1.20;;
59127;SDS011;44912;52.754;5.994;2022-08-26T11:39:19;6.70;;;1.10;;
59127;SDS011;44912;52.754;5.994;2022-08-26T11:42:02;6.60;;;1.15;;
59127;SDS011;44912;52.754;5.994;2022-08-26T11:44:41;9.35;;;1.35;;
59127;SDS011;44912;52.754;5.994;2022-08-26T11:47:08;6.47;;;1.23;;
59127;SDS011;44912;52.754;5.994;2022-08-26T11:49:37;5.63;;;0.93;;
59127;SDS011;44912;52.754;5.994;2022-08-26T11:52:16;6.65;;;1.05;;
59127;SDS011;44912;52.754;5.994;2022-08-26T11:57:31;7.35;;;1.30;;
59127;SDS011;44912;52.754;5.994;2022-08-26T11:59:58;5.55;;;1.00;;
59127;SDS011;44912;52.754;5.994;2022-08-26T12:02:25;11.05;;;1.25;;
59127;SDS011;44912;52.754;5.994;2022-08-26T12:04:52;6.55;;;1.13;;
59127;SDS011;44912;52.754;5.994;2022-08-26T12:07:21;5.95;;;1.15;;
59127;SDS011;44912;52.754;5.994;2022-08-26T12:09:55;9.23;;;1.58;;
59127;SDS011;44912;52.754;5.994;2022-08-26T12:15:04;7.68;;;1.05;;
59127;SDS011;44912;52.754;5.994;2022-08-26T12:17:34;7.28;;;1.25;;
59127;SDS011;44912;52.754;5.994;2022-08-26T12:20:00;7.88;;;1.13;;
59127;SDS011;44912;52.754;5.994;2022-08-26T12:22:31;9.35;;;1.30;;
59127;SDS011;44912;52.754;5.994;2022-08-26T12:25:04;7.57;;;1.20;;
59127;SDS011;44912;52.754;5.994;2022-08-26T12:27:41;9.82;;;1.30;;
59127;SDS011;44912;52.754;5.994;2022-08-26T12:30:10;8.65;;;1.40;;
59127;SDS011;44912;52.754;5.994;2022-08-26T12:32:48;7.65;;;1.30;;
59127;SDS011;44912;52.754;5.994;2022-08-26T12:35:16;7.00;;;1.30;;
59127;SDS011;44912;52.754;5.994;2022-08-26T12:37:45;5.55;;;1.40;;
59127;SDS011;44912;52.754;5.994;2022-08-26T12:42:54;7.63;;;1.27;;
59127;SDS011;44912;52.754;5.994;2022-08-26T12:48:26;13.10;;;2.20;;
59127;SDS011;44912;52.754;5.994;2022-08-26T12:50:54;10.50;;;1.63;;
59127;SDS011;44912;52.754;5.994;2022-08-26T12:53:22;9.82;;;2.10;;
59127;SDS011;44912;52.754;5.994;2022-08-26T12:58:24;4.13;;;1.27;;
59127;SDS011;44912;52.754;5.994;2022-08-26T13:13:58;6.93;;;1.58;;
59127;SDS011;44912;52.754;5.994;2022-08-26T13:16:31;5.35;;;1.27;;
59127;SDS011;44912;52.754;5.994;2022-08-26T13:18:58;8.32;;;1.70;;
59127;SDS011;44912;52.754;5.994;2022-08-26T13:21:31;8.60;;;1.63;;
59127;SDS011;44912;52.754;5.994;2022-08-26T13:24:42;8.15;;;1.52;;
59127;SDS011;44912;52.754;5.994;2022-08-26T13:26:48;8.23;;;2.47;;
59127;SDS011;44912;52.754;5.994;2022-08-26T13:29:14;11.82;;;2.92;;
59127;SDS011;44912;52.754;5.994;2022-08-26T13:31:40;10.50;;;2.40;;
59127;SDS011;44912;52.754;5.994;2022-08-26T13:34:08;13.48;;;3.63;;
59127;SDS011;44912;52.754;5.994;2022-08-26T13:36:36;10.80;;;1.90;;
59127;SDS011;44912;52.754;5.994;2022-08-26T13:39:02;6.07;;;1.50;;
59127;SDS011;44912;52.754;5.994;2022-08-26T13:41:28;9.00;;;2.55;;
59127;SDS011;44912;52.754;5.994;2022-08-26T13:43:55;6.65;;;1.13;;
59127;SDS011;44912;52.754;5.994;2022-08-26T13:46:23;7.07;;;1.10;;
59127;SDS011;44912;52.754;5.994;2022-08-26T13:48:49;5.53;;;1.27;;
59127;SDS011;44912;52.754;5.994;2022-08-26T13:51:15;7.75;;;1.30;;
59127;SDS011;44912;52.754;5.994;2022-08-26T13:53:42;9.98;;;1.10;;
59127;SDS011;44912;52.754;5.994;2022-08-26T13:56:08;5.07;;;1.25;;
59127;SDS011;44912;52.754;5.994;2022-08-26T13:58:33;6.93;;;1.25;;
59127;SDS011;44912;52.754;5.994;2022-08-26T14:00:59;6.50;;;1.00;;
59127;SDS011;44912;52.754;5.994;2022-08-26T14:03:26;5.25;;;1.27;;
59127;SDS011;44912;52.754;5.994;2022-08-26T14:05:52;7.25;;;1.30;;
59127;SDS011;44912;52.754;5.994;2022-08-26T14:08:18;8.88;;;1.25;;
59127;SDS011;44912;52.754;5.994;2022-08-26T14:10:44;5.05;;;1.20;;
59127;SDS011;44912;52.754;5.994;2022-08-26T14:13:11;6.78;;;1.20;;
59127;SDS011;44912;52.754;5.994;2022-08-26T14:15:37;10.88;;;1.60;;
59127;SDS011;44912;52.754;5.994;2022-08-26T14:18:04;6.85;;;1.63;;
59127;SDS011;44912;52.754;5.994;2022-08-26T14:20:32;5.97;;;1.33;;
59127;SDS011;44912;52.754;5.994;2022-08-26T14:22:58;5.53;;;1.17;;
59127;SDS011;44912;52.754;5.994;2022-08-26T14:25:24;6.13;;;1.10;;
59127;SDS011;44912;52.754;5.994;2022-08-26T14:27:50;8.25;;;1.50;;
59127;SDS011;44912;52.754;5.994;2022-08-26T14:30:17;8.98;;;1.60;;
59127;SDS011;44912;52.754;5.994;2022-08-26T14:32:48;6.45;;;1.33;;
59127;SDS011;44912;52.754;5.994;2022-08-26T14:35:20;6.50;;;1.40;;
59127;SDS011;44912;52.754;5.994;2022-08-26T14:37:47;5.95;;;1.45;;
59127;SDS011;44912;52.754;5.994;2022-08-26T14:40:13;7.50;;;1.25;;
59127;SDS011;44912;52.754;5.994;2022-08-26T14:42:42;7.20;;;1.25;;
59127;SDS011;44912;52.754;5.994;2022-08-26T14:45:10;7.78;;;1.20;;
59127;SDS011;44912;52.754;5.994;2022-08-26T14:47:39;7.57;;;1.20;;
59127;SDS011;44912;52.754;5.994;2022-08-26T14:50:05;8.70;;;1.30;;
59127;SDS011;44912;52.754;5.994;2022-08-26T14:52:31;6.22;;;1.10;;
59127;SDS011;44912;52.754;5.994;2022-08-26T14:55:17;4.78;;;1.00;;
59127;SDS011;44912;52.754;5.994;2022-08-26T14:57:42;5.75;;;1.15;;
59127;SDS011;44912;52.754;5.994;2022-08-26T15:00:08;6.18;;;1.13;;
59127;SDS011;44912;52.754;5.994;2022-08-26T15:02:34;5.25;;;1.05;;
59127;SDS011;44912;52.754;5.994;2022-08-26T15:05:01;7.03;;;1.40;;
59127;SDS011;44912;52.754;5.994;2022-08-26T15:07:27;4.75;;;0.93;;
59127;SDS011;44912;52.754;5.994;2022-08-26T15:09:53;8.30;;;1.13;;
59127;SDS011;44912;52.754;5.994;2022-08-26T15:12:19;4.40;;;0.93;;
59127;SDS011;44912;52.754;5.994;2022-08-26T15:14:45;5.72;;;1.00;;
59127;SDS011;44912;52.754;5.994;2022-08-26T15:17:11;7.25;;;1.33;;
59127;SDS011;44912;52.754;5.994;2022-08-26T15:19:37;6.57;;;1.35;;
59127;SDS011;44912;52.754;5.994;2022-08-26T15:22:02;5.20;;;1.15;;
59127;SDS011;44912;52.754;5.994;2022-08-26T15:24:29;6.43;;;1.17;;
59127;SDS011;44912;52.754;5.994;2022-08-26T15:26:55;8.45;;;1.55;;
59127;SDS011;44912;52.754;5.994;2022-08-26T15:29:21;6.63;;;1.27;;
59127;SDS011;44912;52.754;5.994;2022-08-26T15:31:48;11.60;;;1.50;;
59127;SDS011;44912;52.754;5.994;2022-08-26T15:34:14;8.90;;;1.60;;
59127;SDS011;44912;52.754;5.994;2022-08-26T15:36:40;5.90;;;1.30;;
59127;SDS011;44912;52.754;5.994;2022-08-26T15:39:08;6.43;;;0.95;;
59127;SDS011;44912;52.754;5.994;2022-08-26T15:41:34;6.18;;;1.20;;
59127;SDS011;44912;52.754;5.994;2022-08-26T15:44:00;7.15;;;1.10;;
59127;SDS011;44912;52.754;5.994;2022-08-26T15:46:26;9.85;;;2.00;;
59127;SDS011;44912;52.754;5.994;2022-08-26T15:48:51;7.20;;;1.40;;
59127;SDS011;44912;52.754;5.994;2022-08-26T15:51:21;6.88;;;1.10;;
59127;SDS011;44912;52.754;5.994;2022-08-26T15:53:57;7.18;;;1.15;;
59127;SDS011;44912;52.754;5.994;2022-08-26T15:56:27;7.03;;;1.48;;
59127;SDS011;44912;52.754;5.994;2022-08-26T15:58:54;4.03;;;1.00;;
59127;SDS011;44912;52.754;5.994;2022-08-26T16:01:21;8.25;;;1.30;;
59127;SDS011;44912;52.754;5.994;2022-08-26T16:03:47;7.07;;;1.23;;
59127;SDS011;44912;52.754;5.994;2022-08-26T16:06:14;10.10;;;1.33;;
59127;SDS011;44912;52.754;5.994;2022-08-26T16:08:41;6.10;;;1.10;;
59127;SDS011;44912;52.754;5.994;2022-08-26T16:11:07;7.57;;;1.40;;
59127;SDS011;44912;52.754;5.994;2022-08-26T16:13:33;6.97;;;1.23;;